createdAt,value
2018-02-19T00:00:27.692Z,19.15
2018-02-19T00:02:55.220Z,18.30
2018-02-19T00:05:22.772Z,19.52
2018-02-19T00:07:50.269Z,17.52
2018-02-19T00:10:17.787Z,18.45
2018-02-19T00:12:45.319Z,18.10
2018-02-19T00:15:12.844Z,16.50
2018-02-19T00:17:40.366Z,19.15
2018-02-19T00:20:07.916Z,19.05
2018-02-19T00:22:35.441Z,18.30
2018-02-19T00:25:02.945Z,20.52
2018-02-19T00:27:30.482Z,20.02
2018-02-19T00:29:57.980Z,19.80
2018-02-19T00:32:27.704Z,18.77
2018-02-19T00:34:57.201Z,18.83
2018-02-19T00:37:25.478Z,19.40
2018-02-19T00:39:53.749Z,19.35
2018-02-19T00:42:22.061Z,17.05
2018-02-19T00:44:49.564Z,19.25
2018-02-19T00:47:17.079Z,18.73
2018-02-19T00:49:44.614Z,19.27
2018-02-19T00:52:12.127Z,18.12
2018-02-19T00:54:39.621Z,17.58
2018-02-19T00:57:07.934Z,18.35
2018-02-19T00:59:35.443Z,19.30
2018-02-19T01:02:03.738Z,18.83
2018-02-19T01:04:32.045Z,18.42
2018-02-19T01:06:59.559Z,21.17
2018-02-19T01:09:27.839Z,18.25
2018-02-19T01:11:56.156Z,18.62
2018-02-19T01:14:23.656Z,19.85
2018-02-19T01:16:51.169Z,17.90
2018-02-19T01:19:18.703Z,19.02
2018-02-19T01:21:46.978Z,18.10
2018-02-19T01:24:14.500Z,17.75
2018-02-19T01:26:42.048Z,20.30
2018-02-19T01:29:09.548Z,17.10
2018-02-19T01:31:37.818Z,17.73
2018-02-19T01:34:06.123Z,16.50
2018-02-19T01:36:33.647Z,19.52
2018-02-19T01:39:01.952Z,17.73
2018-02-19T01:41:29.491Z,18.40
2018-02-19T01:43:57.766Z,17.67
2018-02-19T01:46:26.042Z,17.08
2018-02-19T01:48:54.343Z,18.00
2018-02-19T01:51:21.869Z,16.67
2018-02-19T01:53:50.159Z,17.02
2018-02-19T01:56:18.458Z,17.23
2018-02-19T01:58:45.984Z,17.83
2018-02-19T02:01:15.301Z,19.48
2018-02-19T02:03:43.615Z,18.27
2018-02-19T02:06:11.143Z,18.15
2018-02-19T02:08:38.659Z,18.73
2018-02-19T02:11:06.193Z,19.42
2018-02-19T02:13:33.692Z,16.58
2018-02-19T02:16:01.188Z,17.70
2018-02-19T02:18:28.732Z,17.25
2018-02-19T02:20:56.245Z,16.20
2018-02-19T02:23:23.758Z,19.65
2018-02-19T02:25:51.277Z,18.05
2018-02-19T02:28:18.800Z,16.02
2018-02-19T02:30:46.298Z,16.87
2018-02-19T02:33:13.860Z,17.15
2018-02-19T02:35:41.374Z,18.30
2018-02-19T02:38:08.889Z,17.30
2018-02-19T02:40:37.180Z,16.87
2018-02-19T02:43:04.678Z,16.52
2018-02-19T02:45:32.197Z,18.42
2018-02-19T02:47:59.735Z,17.10
2018-02-19T02:50:28.014Z,18.15
2018-02-19T02:52:56.303Z,18.77
2018-02-19T02:55:24.590Z,17.65
2018-02-19T02:57:52.119Z,19.90
2018-02-19T03:00:20.403Z,17.00
2018-02-19T03:02:48.718Z,17.75
2018-02-19T03:05:16.230Z,16.35
2018-02-19T03:07:43.742Z,17.95
2018-02-19T03:10:11.288Z,18.25
2018-02-19T03:12:38.812Z,18.12
2018-02-19T03:15:07.086Z,16.55
2018-02-19T03:17:34.618Z,16.50
2018-02-19T03:20:02.132Z,16.37
2018-02-19T03:22:29.646Z,17.62
2018-02-19T03:24:57.186Z,16.60
2018-02-19T03:27:24.689Z,17.30
2018-02-19T03:29:52.983Z,18.50
2018-02-19T03:32:20.519Z,16.20
2018-02-19T03:34:48.798Z,18.77
2018-02-19T03:37:17.110Z,18.25
2018-02-19T03:39:44.646Z,17.83
2018-02-19T03:42:12.162Z,16.40
2018-02-19T03:44:39.674Z,15.85
2018-02-19T03:47:07.224Z,16.30
2018-02-19T03:49:35.512Z,16.65
2018-02-19T03:52:03.012Z,17.50
2018-02-19T03:54:30.545Z,17.12
2018-02-19T03:56:58.055Z,16.02
2018-02-19T03:59:26.324Z,15.70
2018-02-19T04:01:53.845Z,15.32
2018-02-19T04:04:21.340Z,14.98
2018-02-19T04:06:48.849Z,15.57
2018-02-19T04:09:16.377Z,17.80
2018-02-19T04:11:44.648Z,15.35
2018-02-19T04:14:12.935Z,17.05
2018-02-19T04:16:40.460Z,16.83
2018-02-19T04:19:07.979Z,15.68
2018-02-19T04:21:35.499Z,17.67
2018-02-19T04:24:03.821Z,18.05
2018-02-19T04:26:31.324Z,17.80
2018-02-19T04:28:58.848Z,18.35
2018-02-19T04:31:26.376Z,17.27
2018-02-19T04:33:53.898Z,17.85
2018-02-19T04:36:21.402Z,17.40
2018-02-19T04:38:48.939Z,15.25
2018-02-19T04:41:17.218Z,16.70
2018-02-19T04:43:45.507Z,17.40
2018-02-19T04:46:15.561Z,17.08
2018-02-19T04:48:43.068Z,15.32
2018-02-19T04:51:11.351Z,18.62
2018-02-19T04:53:38.900Z,17.00
2018-02-19T04:56:07.191Z,16.15
2018-02-19T04:58:34.715Z,16.23
2018-02-19T05:01:02.264Z,16.08
2018-02-19T05:03:29.788Z,15.75
2018-02-19T05:05:57.311Z,16.70
2018-02-19T05:08:25.621Z,15.82
2018-02-19T05:10:53.130Z,15.90
2018-02-19T05:13:21.424Z,16.62
2018-02-19T05:15:49.721Z,16.33
2018-02-19T05:18:17.241Z,13.27
2018-02-19T05:20:44.768Z,16.52
2018-02-19T05:23:12.315Z,14.48
2018-02-19T05:25:39.830Z,17.30
2018-02-19T05:28:08.256Z,16.52
2018-02-19T05:30:35.783Z,14.77
2018-02-19T05:33:03.307Z,15.02
2018-02-19T05:35:30.827Z,16.08
2018-02-19T05:37:58.363Z,14.70
2018-02-19T05:40:25.883Z,16.30
2018-02-19T05:42:53.400Z,15.65
2018-02-19T05:45:20.937Z,17.17
2018-02-19T05:47:48.788Z,13.75
2018-02-19T05:50:17.071Z,16.25
2018-02-19T05:52:45.386Z,15.70
2018-02-19T05:55:12.898Z,14.20
2018-02-19T05:57:41.178Z,14.13
2018-02-19T06:00:09.474Z,16.73
2018-02-19T06:02:37.048Z,15.85
2018-02-19T06:05:04.553Z,15.80
2018-02-19T06:07:32.087Z,15.40
2018-02-19T06:09:59.612Z,16.80
2018-02-19T06:12:27.169Z,16.40
2018-02-19T06:14:55.945Z,15.05
2018-02-19T06:17:24.218Z,16.70
2018-02-19T06:19:52.501Z,16.50
2018-02-19T06:22:20.028Z,15.10
2018-02-19T06:24:47.552Z,15.23
2018-02-19T06:27:15.071Z,16.48
2018-02-19T06:29:43.380Z,14.80
2018-02-19T06:32:10.881Z,13.32
2018-02-19T06:34:38.383Z,14.77
2018-02-19T06:37:05.900Z,15.82
2018-02-19T06:39:33.416Z,16.00
2018-02-19T06:42:00.908Z,16.70
2018-02-19T06:44:28.447Z,14.93
2018-02-19T06:46:55.972Z,14.63
2018-02-19T06:49:23.487Z,14.35
2018-02-19T06:51:51.019Z,13.80
2018-02-19T06:54:18.542Z,14.60
2018-02-19T06:56:46.064Z,16.15
2018-02-19T06:59:13.621Z,14.80
2018-02-19T07:01:41.144Z,16.05
2018-02-19T07:04:08.663Z,15.82
2018-02-19T07:06:36.980Z,16.40
2018-02-19T07:09:04.502Z,13.45
2018-02-19T07:11:32.773Z,15.68
2018-02-19T07:14:01.084Z,15.93
2018-02-19T07:16:28.594Z,16.20
2018-02-19T07:18:56.098Z,16.52
2018-02-19T07:21:23.625Z,14.70
2018-02-19T07:23:51.898Z,15.32
2018-02-19T07:26:20.175Z,14.95
2018-02-19T07:28:48.492Z,16.25
2018-02-19T07:31:16.002Z,16.23
2018-02-19T07:33:43.512Z,15.98
2018-02-19T07:36:11.043Z,14.07
2018-02-19T07:38:38.555Z,13.38
2018-02-19T07:41:06.064Z,14.25
2018-02-19T07:43:33.584Z,13.18
2018-02-19T07:46:01.103Z,14.13
2018-02-19T07:48:28.603Z,16.00
2018-02-19T07:50:56.129Z,14.25
2018-02-19T07:53:23.648Z,15.63
2018-02-19T07:55:51.940Z,15.10
2018-02-19T07:58:19.464Z,17.48
2018-02-19T08:00:46.968Z,14.23
2018-02-19T08:03:14.483Z,13.60
2018-02-19T08:05:42.786Z,15.82
2018-02-19T08:08:10.308Z,13.98
2018-02-19T08:10:37.813Z,16.05
2018-02-19T08:13:05.365Z,14.98
2018-02-19T08:15:32.900Z,13.60
2018-02-19T08:18:01.169Z,14.40
2018-02-19T08:20:28.688Z,14.20
2018-02-19T08:22:56.203Z,14.52
2018-02-19T08:25:24.493Z,13.85
2018-02-19T08:27:52.030Z,13.85
2018-02-19T08:30:20.316Z,15.88
2018-02-19T08:32:48.598Z,16.25
2018-02-19T08:35:16.134Z,14.18
2018-02-19T08:37:43.655Z,13.98
2018-02-19T08:40:11.172Z,13.80
2018-02-19T08:42:39.475Z,14.27
2018-02-19T08:45:07.002Z,16.37
2018-02-19T08:47:36.128Z,14.80
2018-02-19T08:50:03.663Z,15.57
2018-02-19T08:52:31.198Z,14.13
2018-02-19T08:54:59.487Z,15.75
2018-02-19T08:57:27.790Z,15.90
2018-02-19T08:59:55.293Z,15.63
2018-02-19T09:02:22.805Z,15.40
2018-02-19T09:04:50.350Z,16.48
2018-02-19T09:07:18.617Z,14.80
2018-02-19T09:09:46.905Z,14.32
2018-02-19T09:12:14.448Z,16.45
2018-02-19T09:14:42.716Z,16.52
2018-02-19T09:17:10.243Z,16.37
2018-02-19T09:19:37.783Z,15.48
2018-02-19T09:22:05.280Z,17.40
2018-02-19T09:24:32.819Z,14.68
2018-02-19T09:27:00.341Z,16.83
2018-02-19T09:29:27.868Z,13.57
2018-02-19T09:31:56.155Z,15.45
2018-02-19T09:34:24.466Z,15.02
2018-02-19T09:36:51.986Z,12.93
2018-02-19T09:39:20.263Z,15.27
2018-02-19T09:41:47.828Z,14.23
2018-02-19T09:44:16.128Z,13.77
2018-02-19T09:46:43.646Z,11.90
2018-02-19T09:49:11.182Z,11.65
2018-02-19T09:51:38.708Z,13.95
2018-02-19T09:54:06.209Z,13.07
2018-02-19T09:56:33.752Z,13.10
2018-02-19T09:59:01.262Z,12.25
2018-02-19T10:01:29.556Z,12.13
2018-02-19T10:03:57.090Z,11.05
2018-02-19T10:06:25.378Z,12.37
2018-02-19T10:08:53.653Z,11.43
2018-02-19T10:11:21.951Z,12.73
2018-02-19T10:13:49.459Z,12.80
2018-02-19T10:16:16.969Z,14.40
2018-02-19T10:18:44.502Z,12.77
2018-02-19T10:21:12.865Z,14.73
2018-02-19T10:23:40.320Z,15.20
2018-02-19T10:26:07.858Z,13.85
2018-02-19T10:28:35.371Z,13.48
2018-02-19T10:31:02.890Z,14.38
2018-02-19T10:33:30.426Z,13.77
2018-02-19T10:35:57.938Z,13.02
2018-02-19T10:38:26.230Z,15.32
2018-02-19T10:40:53.759Z,14.52
2018-02-19T10:43:22.048Z,13.98
2018-02-19T10:45:50.326Z,12.63
2018-02-19T10:48:17.864Z,13.10
2018-02-19T10:50:46.145Z,13.73
2018-02-19T10:53:14.423Z,14.43
2018-02-19T10:55:42.712Z,13.30
2018-02-19T10:58:10.980Z,13.73
2018-02-19T11:00:44.909Z,15.15
2018-02-19T11:03:12.439Z,14.23
2018-02-19T11:05:40.732Z,13.23
2018-02-19T11:08:09.040Z,13.88
2018-02-19T11:10:36.559Z,14.20
2018-02-19T11:13:04.851Z,15.02
2018-02-19T11:15:32.380Z,14.77
2018-02-19T11:17:59.890Z,16.02
2018-02-19T11:20:27.412Z,15.30
2018-02-19T11:22:55.709Z,17.52
2018-02-19T11:25:23.214Z,15.40
2018-02-19T11:27:50.726Z,15.38
2018-02-19T11:30:18.263Z,14.55
2018-02-19T11:32:46.529Z,15.45
2018-02-19T11:35:14.047Z,14.82
2018-02-19T11:37:41.594Z,16.85
2018-02-19T11:40:09.111Z,13.95
2018-02-19T11:42:37.390Z,15.18
2018-02-19T11:45:05.691Z,15.30
2018-02-19T11:47:33.212Z,15.50
2018-02-19T11:50:00.727Z,14.93
2018-02-19T11:52:28.273Z,15.75
2018-02-19T11:54:55.791Z,14.55
2018-02-19T11:57:23.322Z,15.23
2018-02-19T11:59:50.869Z,14.87
2018-02-19T12:02:19.159Z,13.45
2018-02-19T12:04:46.656Z,14.13
2018-02-19T12:07:14.960Z,13.25
2018-02-19T12:09:42.460Z,15.30
2018-02-19T12:12:09.972Z,13.95
2018-02-19T12:14:37.528Z,15.57
2018-02-19T12:17:05.055Z,14.65
2018-02-19T12:19:32.566Z,13.40
2018-02-19T12:22:00.093Z,14.98
2018-02-19T12:24:28.357Z,14.90
2018-02-19T12:26:56.649Z,13.82
2018-02-19T12:29:24.182Z,12.57
2018-02-19T12:31:51.694Z,14.52
2018-02-19T12:34:19.199Z,12.98
2018-02-19T12:36:46.720Z,13.43
2018-02-19T12:39:14.234Z,13.20
2018-02-19T12:41:42.504Z,14.00
2018-02-19T12:44:10.811Z,13.27
2018-02-19T12:46:38.482Z,14.73
2018-02-19T12:49:06.079Z,13.75
2018-02-19T12:51:33.614Z,14.23
2018-02-19T12:54:01.127Z,13.80
2018-02-19T12:56:29.396Z,15.10
2018-02-19T12:58:57.698Z,14.90
2018-02-19T13:01:25.201Z,15.10
2018-02-19T13:03:52.715Z,14.70
2018-02-19T13:06:20.240Z,14.85
2018-02-19T13:08:48.509Z,15.23
2018-02-19T13:11:16.019Z,14.23
2018-02-19T13:13:43.583Z,15.23
2018-02-19T13:16:11.108Z,14.68
2018-02-19T13:18:39.396Z,15.32
2018-02-19T13:21:07.018Z,14.90
2018-02-19T13:23:34.491Z,15.05
2018-02-19T13:26:02.789Z,17.62
2018-02-19T13:28:30.348Z,16.67
2018-02-19T13:30:57.863Z,14.45
2018-02-19T13:33:25.397Z,15.90
2018-02-19T13:35:52.947Z,16.77
2018-02-19T13:38:20.473Z,15.02
2018-02-19T13:40:48.756Z,16.12
2018-02-19T13:43:17.064Z,17.42
2018-02-19T13:45:44.583Z,16.87
2018-02-19T13:48:12.866Z,17.08
2018-02-19T13:50:41.168Z,15.23
2018-02-19T13:53:08.719Z,15.23
2018-02-19T13:55:36.971Z,14.07
2018-02-19T13:58:05.270Z,15.35
2018-02-19T14:00:32.787Z,15.45
2018-02-19T14:03:00.307Z,15.48
2018-02-19T14:05:27.824Z,16.37
2018-02-19T14:07:56.103Z,17.10
2018-02-19T14:10:24.375Z,16.08
2018-02-19T14:12:52.674Z,15.07
2018-02-19T14:15:20.186Z,16.15
2018-02-19T14:17:47.712Z,16.23
2018-02-19T14:20:15.237Z,16.80
2018-02-19T14:22:43.513Z,14.90
2018-02-19T14:25:11.782Z,14.20
2018-02-19T14:27:40.083Z,15.25
2018-02-19T14:30:07.602Z,14.70
2018-02-19T14:32:35.886Z,15.60
2018-02-19T14:35:04.187Z,17.00
2018-02-19T14:37:31.693Z,15.15
2018-02-19T14:39:59.212Z,15.35
2018-02-19T14:42:26.741Z,16.30
2018-02-19T14:44:55.023Z,16.00
2018-02-19T14:47:23.307Z,16.25
2018-02-19T14:49:51.596Z,15.35
2018-02-19T14:52:19.100Z,16.65
2018-02-19T14:54:46.619Z,15.50
2018-02-19T14:57:14.154Z,14.85
2018-02-19T14:59:42.427Z,16.17
2018-02-19T15:02:10.705Z,15.40
2018-02-19T15:04:39.003Z,15.82
2018-02-19T15:07:06.514Z,16.15
2018-02-19T15:09:35.030Z,15.63
2018-02-19T15:12:02.557Z,15.38
2018-02-19T15:14:30.078Z,16.50
2018-02-19T15:16:57.599Z,15.40
2018-02-19T15:19:25.902Z,16.35
2018-02-19T15:21:53.418Z,14.05
2018-02-19T15:24:20.922Z,14.93
2018-02-19T15:26:48.453Z,15.13
2018-02-19T15:29:16.737Z,14.87
2018-02-19T15:31:44.271Z,16.50
2018-02-19T15:34:12.564Z,16.10
2018-02-19T15:36:40.857Z,15.68
2018-02-19T15:39:08.374Z,16.17
2018-02-19T15:41:35.914Z,18.08
2018-02-19T15:44:03.438Z,16.42
2018-02-19T15:46:30.949Z,15.40
2018-02-19T15:48:58.670Z,17.15
2018-02-19T15:51:26.286Z,15.88
2018-02-19T15:53:54.557Z,17.25
2018-02-19T15:56:22.096Z,17.12
2018-02-19T15:58:49.616Z,16.37
2018-02-19T16:01:17.178Z,21.95
2018-02-19T16:03:45.449Z,16.70
2018-02-19T16:06:12.972Z,15.52
2018-02-19T16:08:41.269Z,17.37
2018-02-19T16:11:08.797Z,16.35
2018-02-19T16:13:36.329Z,15.77
2018-02-19T16:16:03.833Z,18.87
2018-02-19T16:18:32.120Z,19.10
2018-02-19T16:21:00.414Z,16.05
2018-02-19T16:23:27.969Z,17.27
2018-02-19T16:25:55.505Z,16.45
2018-02-19T16:28:23.768Z,17.80
2018-02-19T16:30:51.292Z,17.40
2018-02-19T16:33:18.849Z,17.65
2018-02-19T16:35:46.366Z,17.17
2018-02-19T16:38:14.200Z,17.65
2018-02-19T16:40:42.516Z,21.08
2018-02-19T16:43:10.026Z,30.95
2018-02-19T16:45:37.538Z,18.60
2018-02-19T16:48:05.060Z,15.93
2018-02-19T16:50:32.585Z,25.37
2018-02-19T16:53:00.115Z,19.50
2018-02-19T16:55:27.657Z,16.00
2018-02-19T16:57:56.109Z,18.02
2018-02-19T17:00:23.668Z,20.40
2018-02-19T17:02:51.168Z,18.58
2018-02-19T17:05:18.687Z,20.40
2018-02-19T17:07:46.189Z,18.67
2018-02-19T17:10:13.722Z,20.50
2018-02-19T17:12:42.002Z,18.95
2018-02-19T17:15:10.278Z,20.12
2018-02-19T17:17:38.577Z,18.83
2018-02-19T17:20:06.099Z,21.90
2018-02-19T17:22:33.608Z,20.73
2018-02-19T17:25:01.141Z,18.73
2018-02-19T17:27:29.418Z,17.80
2018-02-19T17:29:56.946Z,19.48
2018-02-19T17:32:24.501Z,18.83
2018-02-19T17:34:52.008Z,18.87
2018-02-19T17:37:19.510Z,17.95
2018-02-19T17:39:47.041Z,18.08
2018-02-19T17:42:14.560Z,17.23
2018-02-19T17:44:42.848Z,19.08
2018-02-19T17:47:10.397Z,18.37
2018-02-19T17:49:38.679Z,17.60
2018-02-19T17:52:06.968Z,17.90
2018-02-19T17:54:34.511Z,18.65
2018-02-19T17:57:02.790Z,23.40
2018-02-19T17:59:31.661Z,21.67
2018-02-19T18:01:59.198Z,19.80
2018-02-19T18:04:26.710Z,23.20
2018-02-19T18:06:54.284Z,20.10
2018-02-19T18:09:21.809Z,20.42
2018-02-19T18:11:50.073Z,19.20
2018-02-19T18:14:17.596Z,20.83
2018-02-19T18:16:45.122Z,18.65
2018-02-19T18:19:12.648Z,17.67
2018-02-19T18:21:40.155Z,19.58
2018-02-19T18:24:07.685Z,16.85
2018-02-19T18:26:35.975Z,16.83
2018-02-19T18:29:03.490Z,16.70
2018-02-19T18:31:31.017Z,16.40
2018-02-19T18:33:58.543Z,18.58
2018-02-19T18:36:26.069Z,17.73
2018-02-19T18:38:53.597Z,17.15
2018-02-19T18:41:21.115Z,19.17
2018-02-19T18:43:49.409Z,17.55
2018-02-19T18:46:16.959Z,18.50
2018-02-19T18:48:44.457Z,18.20
2018-02-19T18:51:11.985Z,16.65
2018-02-19T18:53:39.517Z,19.98
2018-02-19T18:56:07.800Z,17.50
2018-02-19T18:58:36.078Z,18.98
2018-02-19T19:01:04.378Z,17.87
2018-02-19T19:03:31.885Z,19.15
2018-02-19T19:05:59.396Z,18.90
2018-02-19T19:08:38.802Z,20.50
2018-02-19T19:11:07.092Z,19.00
2018-02-19T19:13:34.623Z,19.17
2018-02-19T19:16:02.180Z,19.17
2018-02-19T19:18:29.699Z,18.73
2018-02-19T19:20:57.231Z,17.85
2018-02-19T19:23:25.813Z,18.20
2018-02-19T19:25:53.322Z,20.02
2018-02-19T19:28:21.640Z,19.05
2018-02-19T19:30:49.904Z,19.08
2018-02-19T19:33:18.198Z,17.40
2018-02-19T19:35:45.743Z,18.65
2018-02-19T19:38:14.027Z,19.30
2018-02-19T19:40:42.312Z,20.42
2018-02-19T19:43:09.855Z,20.48
2018-02-19T19:45:38.130Z,21.75
2018-02-19T19:48:06.398Z,25.55
2018-02-19T19:50:33.930Z,22.17
2018-02-19T19:53:01.452Z,19.75
2018-02-19T19:55:28.966Z,16.08
2018-02-19T19:57:56.510Z,19.30
2018-02-19T20:00:24.030Z,18.37
2018-02-19T20:02:51.607Z,18.05
2018-02-19T20:05:19.184Z,19.95
2018-02-19T20:07:46.681Z,19.60
2018-02-19T20:10:14.963Z,18.50
2018-02-19T20:12:43.262Z,20.10
2018-02-19T20:15:10.774Z,20.67
2018-02-19T20:17:38.282Z,20.52
2018-02-19T20:20:05.818Z,18.85
2018-02-19T20:22:34.099Z,22.52
2018-02-19T20:25:01.608Z,20.23
2018-02-19T20:27:29.143Z,19.95
2018-02-19T20:29:56.659Z,23.17
2018-02-19T20:32:24.950Z,21.10
2018-02-19T20:34:52.502Z,21.85
2018-02-19T20:37:20.777Z,20.50
2018-02-19T20:39:49.058Z,20.60
2018-02-19T20:42:17.359Z,21.00
2018-02-19T20:44:44.933Z,20.80
2018-02-19T20:47:12.455Z,22.70
2018-02-19T20:49:40.776Z,21.30
2018-02-19T20:52:08.294Z,19.77
2018-02-19T20:54:35.813Z,23.15
2018-02-19T20:57:03.342Z,20.42
2018-02-19T20:59:30.861Z,23.80
2018-02-19T21:01:59.152Z,23.02
2018-02-19T21:04:26.690Z,20.02
2018-02-19T21:06:54.970Z,19.98
2018-02-19T21:09:23.255Z,21.10
2018-02-19T21:11:50.794Z,22.52
2018-02-19T21:14:19.074Z,20.05
2018-02-19T21:16:47.365Z,19.17
2018-02-19T21:19:15.684Z,21.05
2018-02-19T21:21:43.199Z,21.45
2018-02-19T21:24:11.482Z,20.58
2018-02-19T21:26:39.020Z,20.70
2018-02-19T21:29:07.307Z,21.50
2018-02-19T21:31:35.597Z,20.77
2018-02-19T21:34:03.476Z,20.33
2018-02-19T21:36:31.002Z,21.55
2018-02-19T21:38:59.649Z,21.55
2018-02-19T21:41:27.186Z,20.60
2018-02-19T21:43:54.758Z,21.40
2018-02-19T21:46:22.275Z,21.25
2018-02-19T21:48:50.576Z,20.33
2018-02-19T21:51:18.094Z,22.30
2018-02-19T21:53:46.384Z,22.48
2018-02-19T21:56:14.688Z,21.00
2018-02-19T21:58:42.212Z,20.65
2018-02-19T22:01:10.500Z,23.48
2018-02-19T22:03:38.804Z,21.62
2018-02-19T22:06:06.305Z,22.23
2018-02-19T22:08:33.815Z,22.05
2018-02-19T22:11:01.351Z,22.02
2018-02-19T22:13:29.631Z,25.12
2018-02-19T22:15:57.916Z,23.67
2018-02-19T22:18:25.452Z,22.25
2018-02-19T22:20:53.730Z,22.77
2018-02-19T22:23:22.005Z,23.52
2018-02-19T22:25:50.305Z,23.48
2018-02-19T22:28:17.828Z,22.23
2018-02-19T22:30:45.338Z,22.58
2018-02-19T22:33:12.888Z,20.40
2018-02-19T22:35:40.402Z,20.83
2018-02-19T22:38:07.916Z,23.67
2018-02-19T22:40:35.447Z,24.08
2018-02-19T22:43:03.725Z,21.60
2018-02-19T22:45:31.988Z,24.35
2018-02-19T22:48:00.287Z,22.55
2018-02-19T22:50:27.801Z,23.42
2018-02-19T22:52:55.325Z,24.90
2018-02-19T22:55:22.863Z,26.17
2018-02-19T22:57:50.375Z,25.52
2018-02-19T23:00:17.893Z,24.48
2018-02-19T23:02:45.428Z,22.42
2018-02-19T23:05:13.724Z,24.80
2018-02-19T23:07:41.238Z,24.20
2018-02-19T23:10:08.778Z,23.55
2018-02-19T23:12:36.304Z,24.27
2018-02-19T23:15:03.832Z,22.58
2018-02-19T23:17:32.121Z,24.90
2018-02-19T23:19:59.645Z,23.05
2018-02-19T23:22:27.154Z,23.10
2018-02-19T23:24:54.682Z,22.02
2018-02-19T23:27:22.963Z,24.27
2018-02-19T23:29:51.251Z,23.40
2018-02-19T23:32:18.787Z,25.77
2018-02-19T23:34:47.061Z,25.67
2018-02-19T23:37:14.569Z,24.60
2018-02-19T23:39:42.102Z,26.25
2018-02-19T23:42:09.622Z,26.42
2018-02-19T23:44:37.136Z,25.88
2018-02-19T23:47:04.685Z,24.17
2018-02-19T23:49:32.819Z,22.60
2018-02-19T23:52:00.321Z,26.10
2018-02-19T23:54:34.583Z,23.60
2018-02-19T23:57:02.098Z,25.02
2018-02-19T23:59:29.604Z,24.70
